createdAt,value
2022-11-08T00:01:47.211Z,11.50
2022-11-08T00:04:16.100Z,11.50
2022-11-08T00:07:07.270Z,11.50
2022-11-08T00:09:52.960Z,11.50
2022-11-08T00:12:42.009Z,11.50
2022-11-08T00:15:13.286Z,11.50
2022-11-08T00:17:47.722Z,11.60
2022-11-08T00:20:18.987Z,11.60
2022-11-08T00:22:49.081Z,11.60
2022-11-08T00:25:18.092Z,11.60
2022-11-08T00:27:46.548Z,11.50
2022-11-08T00:33:00.784Z,11.60
2022-11-08T00:35:29.791Z,11.60
2022-11-08T00:37:59.966Z,11.60
2022-11-08T00:40:30.953Z,11.60
2022-11-08T00:43:02.269Z,11.60
2022-11-08T00:45:29.825Z,11.60
2022-11-08T00:47:58.919Z,11.60
2022-11-08T00:50:26.543Z,11.60
2022-11-08T00:52:55.583Z,11.60
2022-11-08T00:55:23.617Z,11.60
2022-11-08T00:57:59.647Z,11.60
2022-11-08T01:00:28.851Z,11.60
2022-11-08T01:03:20.404Z,11.60
2022-11-08T01:06:02.932Z,11.60
2022-11-08T01:08:33.353Z,11.60
2022-11-08T01:11:08.476Z,11.60
2022-11-08T01:13:36.205Z,11.60
2022-11-08T01:16:12.231Z,11.60
2022-11-08T01:18:40.133Z,11.70
2022-11-08T01:21:10.070Z,11.60
2022-11-08T01:23:40.035Z,11.70
2022-11-08T01:26:12.114Z,11.70
2022-11-08T01:28:39.633Z,11.70
2022-11-08T01:31:26.324Z,11.70
2022-11-08T01:33:56.764Z,11.60
2022-11-08T01:36:26.546Z,11.60
2022-11-08T01:38:57.600Z,11.70
2022-11-08T01:41:28.015Z,11.70
2022-11-08T01:44:02.127Z,11.70
2022-11-08T01:46:39.458Z,11.70
2022-11-08T01:49:51.219Z,11.70
2022-11-08T01:52:56.288Z,11.70
2022-11-08T01:55:42.235Z,11.70
2022-11-08T01:58:21.103Z,11.60
2022-11-08T02:00:51.076Z,11.60
2022-11-08T02:03:23.031Z,11.60
2022-11-08T02:05:53.412Z,11.60
2022-11-08T02:08:37.160Z,11.60
2022-11-08T02:11:10.098Z,11.60
2022-11-08T02:13:41.804Z,11.70
2022-11-08T02:16:18.165Z,11.80
2022-11-08T02:18:50.514Z,11.70
2022-11-08T02:21:55.159Z,11.70
2022-11-08T02:24:23.420Z,11.70
2022-11-08T02:26:54.950Z,11.70
2022-11-08T02:29:36.962Z,11.70
2022-11-08T02:32:09.468Z,11.80
2022-11-08T02:34:58.436Z,11.80
2022-11-08T02:37:28.096Z,11.80
2022-11-08T02:39:56.713Z,11.80
2022-11-08T02:42:26.888Z,11.80
2022-11-08T02:44:57.303Z,11.80
2022-11-08T02:47:28.349Z,11.80
2022-11-08T02:49:58.170Z,11.80
2022-11-08T02:52:25.683Z,11.80
2022-11-08T02:54:53.683Z,11.80
2022-11-08T02:57:21.975Z,11.80
2022-11-08T02:59:53.140Z,11.80
2022-11-08T03:02:23.210Z,11.80
2022-11-08T03:04:52.037Z,11.70
2022-11-08T03:07:24.524Z,11.70
2022-11-08T03:09:56.082Z,11.70
2022-11-08T03:12:26.943Z,11.70
2022-11-08T03:14:57.038Z,11.80
2022-11-08T03:17:26.401Z,11.80
2022-11-08T03:19:53.957Z,11.80
2022-11-08T03:22:25.775Z,11.80
2022-11-08T03:24:54.082Z,11.80
2022-11-08T03:27:26.255Z,11.80
2022-11-08T03:29:53.710Z,11.80
2022-11-08T03:32:24.834Z,11.80
2022-11-08T03:34:52.759Z,11.70
2022-11-08T03:37:26.414Z,11.80
2022-11-08T03:39:55.688Z,11.80
2022-11-08T03:42:27.119Z,11.70
2022-11-08T03:44:57.264Z,11.70
2022-11-08T03:47:27.328Z,11.80
2022-11-08T03:49:57.323Z,11.70
2022-11-08T03:52:28.235Z,11.70
2022-11-08T03:54:57.963Z,11.70
2022-11-08T03:57:25.756Z,11.70
2022-11-08T03:59:56.346Z,11.70
2022-11-08T04:02:25.910Z,11.70
2022-11-08T04:04:53.732Z,11.70
2022-11-08T04:07:25.375Z,11.70
2022-11-08T04:09:57.944Z,11.70
2022-11-08T04:12:46.209Z,11.70
2022-11-08T04:15:17.006Z,11.60
2022-11-08T04:18:10.187Z,11.60
2022-11-08T04:21:11.534Z,11.70
2022-11-08T04:23:39.616Z,11.70
2022-11-08T04:26:11.465Z,11.70
2022-11-08T04:28:45.919Z,11.70
2022-11-08T04:31:20.686Z,11.70
2022-11-08T04:33:51.257Z,11.70
2022-11-08T04:36:20.081Z,11.60
2022-11-08T04:38:57.164Z,11.70
2022-11-08T04:41:27.558Z,11.70
2022-11-08T04:43:58.058Z,11.60
2022-11-08T04:46:31.279Z,11.60
2022-11-08T04:49:04.165Z,11.60
2022-11-08T04:51:34.560Z,11.50
2022-11-08T04:54:09.016Z,11.60
2022-11-08T04:56:39.554Z,11.60
2022-11-08T04:59:12.019Z,11.60
2022-11-08T05:01:41.596Z,11.60
2022-11-08T05:04:12.171Z,11.60
2022-11-08T05:07:02.704Z,11.60
2022-11-08T05:09:35.169Z,11.60
2022-11-08T05:12:05.985Z,11.60
2022-11-08T05:14:37.430Z,11.60
2022-11-08T05:17:07.969Z,11.60
2022-11-08T05:19:59.316Z,11.70
2022-11-08T05:22:46.871Z,11.70
2022-11-08T05:25:16.196Z,11.70
2022-11-08T05:27:46.404Z,11.70
2022-11-08T05:30:19.389Z,11.60
2022-11-08T05:33:10.132Z,11.70
2022-11-08T05:35:41.362Z,11.60
2022-11-08T05:38:12.425Z,11.70
2022-11-08T05:40:44.654Z,11.70
2022-11-08T05:43:15.393Z,11.70
2022-11-08T05:45:49.059Z,11.80
2022-11-08T05:48:18.060Z,11.80
2022-11-08T05:50:51.227Z,11.70
2022-11-08T05:53:22.446Z,11.60
2022-11-08T05:56:10.566Z,11.70
2022-11-08T05:58:41.507Z,11.70
2022-11-08T06:01:18.117Z,11.80
2022-11-08T06:03:51.784Z,11.80
2022-11-08T06:06:28.403Z,11.80
2022-11-08T06:08:58.456Z,11.90
2022-11-08T06:11:29.899Z,11.90
2022-11-08T06:14:00.507Z,12.00
2022-11-08T06:16:31.669Z,12.00
2022-11-08T06:18:59.102Z,12.00
2022-11-08T06:21:29.050Z,11.90
2022-11-08T06:23:58.263Z,11.90
2022-11-08T06:26:30.478Z,11.90
2022-11-08T06:28:59.730Z,11.80
2022-11-08T06:31:27.902Z,11.80
2022-11-08T06:33:55.930Z,11.80
2022-11-08T06:36:24.491Z,11.70
2022-11-08T06:38:55.845Z,11.70
2022-11-08T06:41:23.781Z,11.70
2022-11-08T06:43:52.443Z,11.70
2022-11-08T06:46:20.185Z,11.70
2022-11-08T06:48:49.324Z,11.80
2022-11-08T06:51:20.720Z,11.80
2022-11-08T06:53:54.961Z,11.90
2022-11-08T06:56:23.025Z,11.90
2022-11-08T06:58:54.211Z,11.80
2022-11-08T07:01:25.664Z,11.80
2022-11-08T07:03:55.452Z,11.70
2022-11-08T07:06:23.023Z,11.70
2022-11-08T07:08:54.620Z,11.60
2022-11-08T07:11:26.402Z,11.70
2022-11-08T07:13:54.189Z,11.80
2022-11-08T07:16:25.779Z,11.70
2022-11-08T07:19:00.383Z,11.70
2022-11-08T07:21:30.525Z,11.80
2022-11-08T07:24:01.598Z,11.90
2022-11-08T07:26:31.067Z,12.00
2022-11-08T07:28:59.090Z,12.00
2022-11-08T07:31:30.153Z,12.00
2022-11-08T07:33:58.067Z,12.00
2022-11-08T07:36:31.476Z,12.10
2022-11-08T07:39:06.317Z,12.20
2022-11-08T07:41:38.972Z,12.30
2022-11-08T07:44:07.843Z,12.30
2022-11-08T07:46:40.607Z,12.30
2022-11-08T07:49:09.116Z,12.40
2022-11-08T07:51:50.074Z,12.50
2022-11-08T07:54:19.737Z,12.70
2022-11-08T07:56:50.996Z,12.60
2022-11-08T07:59:21.632Z,12.70
2022-11-08T08:01:51.532Z,12.70
2022-11-08T08:04:20.566Z,12.70
2022-11-08T08:06:52.630Z,12.70
2022-11-08T08:09:23.916Z,12.70
2022-11-08T08:11:57.089Z,12.70
2022-11-08T08:14:25.115Z,12.80
2022-11-08T08:16:53.709Z,12.90
2022-11-08T08:19:23.371Z,12.90
2022-11-08T08:21:52.400Z,13.00
2022-11-08T08:24:22.085Z,13.00
2022-11-08T08:26:51.861Z,13.00
2022-11-08T08:29:19.285Z,13.00
2022-11-08T08:34:30.168Z,13.10
2022-11-08T08:36:58.278Z,13.10
2022-11-08T08:39:31.477Z,13.10
2022-11-08T08:42:01.679Z,13.10
2022-11-08T08:44:32.434Z,13.10
2022-11-08T08:47:03.597Z,13.20
2022-11-08T08:49:34.428Z,13.20
2022-11-08T08:52:06.543Z,13.20
2022-11-08T08:54:34.082Z,13.20
2022-11-08T08:57:04.680Z,13.30
2022-11-08T09:02:26.957Z,13.30
2022-11-08T09:04:54.263Z,13.40
2022-11-08T09:07:23.536Z,13.30
2022-11-08T09:09:57.582Z,13.20
2022-11-08T09:12:25.944Z,13.20
2022-11-08T09:14:59.802Z,13.20
2022-11-08T09:20:13.255Z,13.10
2022-11-08T09:23:07.749Z,13.10
2022-11-08T09:25:37.825Z,13.20
2022-11-08T09:28:07.005Z,13.30
2022-11-08T09:30:35.154Z,13.30
2022-11-08T09:33:04.126Z,13.40
2022-11-08T09:35:37.169Z,13.40
2022-11-08T09:38:08.805Z,13.50
2022-11-08T09:41:09.048Z,13.60
2022-11-08T09:44:07.891Z,13.70
2022-11-08T09:46:59.566Z,13.60
2022-11-08T09:49:59.617Z,13.60
2022-11-08T09:52:31.363Z,13.60
2022-11-08T09:55:35.149Z,13.60
2022-11-08T09:58:12.456Z,13.60
2022-11-08T10:00:41.480Z,13.60
2022-11-08T10:03:17.367Z,13.60
2022-11-08T10:06:33.363Z,13.70
2022-11-08T10:09:38.569Z,13.70
2022-11-08T10:12:43.750Z,13.70
2022-11-08T10:15:55.908Z,13.80
2022-11-08T10:18:57.881Z,13.80
2022-11-08T10:22:00.775Z,13.90
2022-11-08T10:25:10.908Z,13.90
2022-11-08T10:27:46.487Z,13.90
2022-11-08T10:30:27.717Z,13.90
2022-11-08T10:33:01.023Z,13.80
2022-11-08T10:35:46.977Z,13.80
2022-11-08T10:38:34.327Z,13.70
2022-11-08T10:41:25.241Z,13.80
2022-11-08T10:44:24.274Z,13.70
2022-11-08T10:47:07.153Z,13.70
2022-11-08T10:49:42.933Z,13.70
2022-11-08T10:52:30.526Z,13.80
2022-11-08T10:55:02.365Z,13.90
2022-11-08T10:57:47.635Z,14.00
2022-11-08T11:00:37.674Z,14.20
2022-11-08T11:03:14.275Z,14.00
2022-11-08T11:06:01.464Z,14.00
2022-11-08T11:08:32.228Z,14.20
2022-11-08T11:11:31.402Z,14.30
2022-11-08T11:14:35.831Z,14.50
2022-11-08T11:17:16.496Z,14.80
2022-11-08T11:20:03.145Z,15.00
2022-11-08T11:22:35.154Z,15.00
2022-11-08T11:25:24.789Z,15.00
2022-11-08T11:28:00.579Z,15.20
2022-11-08T11:30:36.207Z,15.40
2022-11-08T11:33:26.886Z,15.30
2022-11-08T11:36:15.784Z,15.30
2022-11-08T11:39:25.809Z,15.20
2022-11-08T11:42:39.006Z,14.90
2022-11-08T11:45:35.933Z,15.10
2022-11-08T11:48:23.411Z,15.00
2022-11-08T11:50:56.344Z,15.10
2022-11-08T11:53:48.921Z,15.20
2022-11-08T11:56:52.450Z,15.40
2022-11-08T11:59:58.278Z,15.80
2022-11-08T12:02:56.683Z,16.10
2022-11-08T12:06:08.939Z,16.00
2022-11-08T12:09:11.295Z,16.10
2022-11-08T12:11:54.191Z,16.10
2022-11-08T12:14:39.441Z,16.20
2022-11-08T12:17:49.516Z,16.20
2022-11-08T12:20:30.566Z,16.10
2022-11-08T12:23:35.498Z,16.00
2022-11-08T12:26:43.148Z,16.20
2022-11-08T12:29:45.647Z,16.30
2022-11-08T12:32:44.717Z,16.10
2022-11-08T12:35:42.382Z,16.00
2022-11-08T12:38:56.427Z,15.90
2022-11-08T12:42:17.445Z,15.90
2022-11-08T12:45:18.653Z,15.80
2022-11-08T12:48:16.357Z,15.80
2022-11-08T12:51:12.846Z,15.70
2022-11-08T12:54:03.683Z,15.70
2022-11-08T12:57:01.476Z,15.80
2022-11-08T12:59:43.223Z,15.80
2022-11-08T13:02:23.338Z,16.00
2022-11-08T13:05:27.283Z,16.10
2022-11-08T13:08:27.956Z,16.10
2022-11-08T13:11:17.035Z,16.30
2022-11-08T13:13:56.071Z,18.30
2022-11-08T13:16:27.186Z,20.60
2022-11-08T13:19:09.038Z,23.10
2022-11-08T13:21:45.380Z,25.20
2022-11-08T13:24:43.370Z,26.30
2022-11-08T13:27:58.981Z,26.40
2022-11-08T13:30:50.208Z,26.70
2022-11-08T13:33:40.237Z,27.10
2022-11-08T13:36:29.666Z,26.70
2022-11-08T13:39:44.240Z,26.30
2022-11-08T13:42:24.292Z,25.70
2022-11-08T13:45:22.688Z,24.80
2022-11-08T13:47:55.820Z,24.10
2022-11-08T13:50:51.411Z,23.10
2022-11-08T13:53:29.203Z,22.10
2022-11-08T13:56:09.952Z,21.30
2022-11-08T13:58:49.278Z,21.00
2022-11-08T14:01:24.610Z,20.70
2022-11-08T14:07:05.309Z,19.80
2022-11-08T14:09:56.547Z,19.40
2022-11-08T14:13:04.651Z,19.30
2022-11-08T14:15:49.730Z,19.40
2022-11-08T14:18:35.324Z,19.50
2022-11-08T14:21:05.729Z,19.50
2022-11-08T14:23:47.379Z,19.60
2022-11-08T14:26:33.159Z,19.40
2022-11-08T14:29:03.359Z,19.20
2022-11-08T14:31:37.011Z,19.10
2022-11-08T14:34:05.855Z,19.00
2022-11-08T14:36:39.205Z,19.00
2022-11-08T14:39:27.797Z,18.80
2022-11-08T14:42:02.082Z,18.40
2022-11-08T14:44:31.001Z,18.20
2022-11-08T14:47:00.740Z,18.00
2022-11-08T14:49:42.591Z,17.90
2022-11-08T14:52:30.846Z,17.70
2022-11-08T14:55:25.926Z,17.50
2022-11-08T14:57:57.244Z,17.40
2022-11-08T15:00:27.335Z,17.20
2022-11-08T15:03:06.981Z,17.00
2022-11-08T15:05:53.998Z,16.80
2022-11-08T15:08:36.355Z,16.70
2022-11-08T15:11:12.206Z,16.50
2022-11-08T15:13:53.131Z,16.20
2022-11-08T15:16:20.764Z,16.10
2022-11-08T15:18:53.139Z,15.90
2022-11-08T15:21:33.497Z,15.70
2022-11-08T15:24:46.429Z,15.50
2022-11-08T15:27:19.454Z,15.30
2022-11-08T15:30:16.948Z,15.10
2022-11-08T15:32:48.391Z,15.00
2022-11-08T15:35:39.150Z,14.90
2022-11-08T15:38:22.275Z,14.90
2022-11-08T15:40:54.892Z,14.80
2022-11-08T15:43:46.044Z,14.70
2022-11-08T15:46:39.723Z,14.70
2022-11-08T15:49:19.398Z,14.60
2022-11-08T15:52:06.355Z,14.60
2022-11-08T15:54:37.988Z,14.50
2022-11-08T15:57:09.030Z,14.40
2022-11-08T15:59:40.489Z,14.40
2022-11-08T16:02:26.407Z,14.40
2022-11-08T16:04:57.102Z,14.40
2022-11-08T16:07:24.752Z,14.30
2022-11-08T16:09:59.314Z,14.20
2022-11-08T16:12:30.484Z,14.20
2022-11-08T16:15:01.068Z,14.20
2022-11-08T16:17:35.064Z,14.10
2022-11-08T16:20:16.252Z,14.10
2022-11-08T16:22:46.171Z,14.00
2022-11-08T16:25:17.144Z,14.00
2022-11-08T16:27:57.435Z,14.00
2022-11-08T16:30:29.934Z,14.00
2022-11-08T16:33:01.226Z,14.00
2022-11-08T16:35:33.527Z,13.90
2022-11-08T16:38:03.047Z,13.80
2022-11-08T16:40:35.205Z,13.80
2022-11-08T16:43:06.674Z,13.80
2022-11-08T16:46:03.924Z,13.80
2022-11-08T16:48:27.701Z,13.70
2022-11-08T16:51:03.274Z,13.70
2022-11-08T16:53:34.700Z,13.70
2022-11-08T16:56:05.682Z,13.70
2022-11-08T16:58:38.984Z,13.60
2022-11-08T17:01:15.291Z,13.70
2022-11-08T17:03:44.817Z,13.70
2022-11-08T17:06:18.642Z,13.60
2022-11-08T17:08:51.556Z,13.60
2022-11-08T17:11:24.601Z,13.60
2022-11-08T17:13:53.316Z,13.60
2022-11-08T17:16:21.915Z,13.60
2022-11-08T17:18:53.238Z,13.60
2022-11-08T17:24:21.928Z,13.50
2022-11-08T17:26:53.723Z,13.50
2022-11-08T17:29:26.023Z,13.40
2022-11-08T17:31:57.396Z,13.40
2022-11-08T17:34:27.449Z,13.40
2022-11-08T17:36:56.080Z,13.40
2022-11-08T17:39:27.114Z,13.40
2022-11-08T17:41:55.043Z,13.40
2022-11-08T17:44:25.216Z,13.40
2022-11-08T17:46:57.740Z,13.30
2022-11-08T17:49:29.387Z,13.30
2022-11-08T17:51:59.010Z,13.30
2022-11-08T17:54:26.816Z,13.30
2022-11-08T17:56:55.772Z,13.30
2022-11-08T17:59:24.100Z,13.20
2022-11-08T18:01:54.290Z,13.20
2022-11-08T18:04:23.012Z,13.20
2022-11-08T18:06:54.048Z,13.10
2022-11-08T18:09:23.844Z,13.10
2022-11-08T18:11:52.761Z,13.00
2022-11-08T18:14:28.275Z,13.10
2022-11-08T18:17:03.014Z,13.10
2022-11-08T18:19:32.636Z,13.00
2022-11-08T18:22:07.622Z,13.00
2022-11-08T18:24:39.334Z,13.00
2022-11-08T18:27:09.329Z,13.00
2022-11-08T18:29:38.894Z,13.10
2022-11-08T18:32:14.453Z,13.10
2022-11-08T18:34:44.347Z,13.00
2022-11-08T18:37:15.593Z,13.10
2022-11-08T18:39:47.296Z,13.10
2022-11-08T18:42:17.015Z,13.10
2022-11-08T18:44:47.290Z,13.00
2022-11-08T18:47:18.698Z,13.10
2022-11-08T18:49:50.046Z,13.10
2022-11-08T18:52:20.643Z,13.10
2022-11-08T18:54:51.206Z,13.00
2022-11-08T18:57:23.274Z,13.00
2022-11-08T19:00:00.839Z,12.90
2022-11-08T19:02:31.750Z,12.90
2022-11-08T19:05:01.155Z,13.00
2022-11-08T19:07:34.184Z,12.90
2022-11-08T19:10:01.750Z,12.90
2022-11-08T19:12:30.138Z,12.90
2022-11-08T19:14:57.746Z,12.90
2022-11-08T19:17:30.164Z,12.90
2022-11-08T19:19:57.738Z,12.90
2022-11-08T19:22:32.343Z,12.90
2022-11-08T19:25:03.300Z,12.90
2022-11-08T19:27:39.191Z,12.90
2022-11-08T19:30:10.629Z,12.90
2022-11-08T19:32:38.978Z,12.90
2022-11-08T19:35:11.698Z,12.90
2022-11-08T19:37:41.244Z,12.90
2022-11-08T19:40:13.923Z,12.90
2022-11-08T19:42:48.479Z,12.80
2022-11-08T19:45:20.635Z,12.90
2022-11-08T19:47:51.633Z,12.90
2022-11-08T19:50:22.515Z,12.90
2022-11-08T19:52:54.742Z,12.90
2022-11-08T19:55:22.825Z,12.90
2022-11-08T19:57:53.925Z,12.80
2022-11-08T20:00:25.749Z,12.80
2022-11-08T20:02:59.693Z,12.70
2022-11-08T20:05:32.567Z,12.70
2022-11-08T20:08:06.767Z,12.70
2022-11-08T20:10:34.268Z,12.70
2022-11-08T20:13:04.727Z,12.70
2022-11-08T20:15:34.436Z,12.70
2022-11-08T20:18:08.747Z,12.70
2022-11-08T20:20:41.426Z,12.70
2022-11-08T20:23:19.866Z,12.70
2022-11-08T20:25:49.310Z,12.70
2022-11-08T20:28:20.636Z,12.70
2022-11-08T20:30:49.487Z,12.70
2022-11-08T20:33:21.082Z,12.70
2022-11-08T20:35:52.321Z,12.70
2022-11-08T20:38:24.410Z,12.70
2022-11-08T20:40:55.720Z,12.70
2022-11-08T20:43:37.645Z,12.70
2022-11-08T20:46:11.468Z,12.70
2022-11-08T20:48:43.635Z,12.80
2022-11-08T20:51:26.946Z,12.70
2022-11-08T20:53:58.507Z,12.70
2022-11-08T20:56:33.776Z,12.60
2022-11-08T20:59:03.406Z,12.60
2022-11-08T21:01:37.596Z,12.60
2022-11-08T21:07:59.591Z,12.50
2022-11-08T21:09:50.484Z,12.50
2022-11-08T21:12:22.163Z,12.50
2022-11-08T21:14:55.498Z,12.60
2022-11-08T21:17:25.611Z,12.60
2022-11-08T21:19:57.427Z,12.60
2022-11-08T21:22:29.027Z,12.60
2022-11-08T21:24:58.804Z,12.60
2022-11-08T21:27:30.111Z,12.60
2022-11-08T21:30:04.631Z,12.60
2022-11-08T21:32:32.391Z,12.60
2022-11-08T21:35:02.158Z,12.60
2022-11-08T21:37:33.977Z,12.60
2022-11-08T21:40:04.498Z,12.60
2022-11-08T21:42:38.022Z,12.50
2022-11-08T21:45:08.081Z,12.50
2022-11-08T21:47:36.018Z,12.40
2022-11-08T21:50:09.244Z,12.30
2022-11-08T21:52:37.949Z,12.20
2022-11-08T21:55:09.463Z,12.20
2022-11-08T21:57:39.122Z,12.10
2022-11-08T22:00:11.360Z,12.10
2022-11-08T22:02:44.250Z,12.10
2022-11-08T22:05:14.407Z,12.10
2022-11-08T22:07:45.194Z,12.00
2022-11-08T22:10:15.844Z,12.00
2022-11-08T22:12:46.663Z,12.00
2022-11-08T22:15:15.690Z,12.00
2022-11-08T22:18:14.464Z,12.00
2022-11-08T22:20:36.413Z,12.00
2022-11-08T22:23:10.811Z,11.90
2022-11-08T22:25:40.515Z,11.90
2022-11-08T22:28:10.011Z,11.80
2022-11-08T22:30:39.284Z,11.80
2022-11-08T22:33:08.121Z,11.70
2022-11-08T22:35:37.016Z,11.70
2022-11-08T22:38:15.652Z,11.70
2022-11-08T22:40:50.924Z,11.70
2022-11-08T22:43:22.716Z,11.70
2022-11-08T22:45:50.744Z,11.60
2022-11-08T22:48:25.475Z,11.60
2022-11-08T22:50:59.652Z,11.60
2022-11-08T22:53:29.380Z,11.60
2022-11-08T22:56:01.328Z,11.60
2022-11-08T22:58:32.957Z,11.60
2022-11-08T23:01:02.808Z,11.60
2022-11-08T23:03:33.774Z,11.60
2022-11-08T23:06:06.338Z,11.60
2022-11-08T23:08:42.586Z,11.50
2022-11-08T23:11:33.467Z,11.50
2022-11-08T23:14:23.631Z,11.50
2022-11-08T23:16:55.500Z,11.50
2022-11-08T23:19:44.423Z,11.50
2022-11-08T23:22:37.841Z,11.40
2022-11-08T23:25:08.702Z,11.40
2022-11-08T23:28:02.341Z,11.40
2022-11-08T23:30:51.500Z,11.30
2022-11-08T23:33:22.739Z,11.30
2022-11-08T23:36:16.887Z,11.30
2022-11-08T23:38:46.768Z,11.30
2022-11-08T23:41:36.823Z,11.30
2022-11-08T23:44:31.527Z,11.30
2022-11-08T23:47:03.633Z,11.20
2022-11-08T23:49:35.909Z,11.20
2022-11-08T23:52:04.606Z,11.20
2022-11-08T23:54:33.113Z,11.20
2022-11-08T23:57:03.367Z,11.10
2022-11-08T23:59:35.507Z,11.10
